sensor_id;sensor_type;location;lat;lon;timestamp;P1;durP1;ratioP1;P2;durP2;ratioP2
1603;SDS011;795;49.296;11.348;2022-07-23T00:00:20;9.47;;;8.67;;
1603;SDS011;795;49.296;11.348;2022-07-23T00:02:47;10.47;;;9.37;;
1603;SDS011;795;49.296;11.348;2022-07-23T00:05:14;9.47;;;8.53;;
1603;SDS011;795;49.296;11.348;2022-07-23T00:07:42;9.40;;;8.57;;
1603;SDS011;795;49.296;11.348;2022-07-23T00:10:09;9.47;;;8.77;;
1603;SDS011;795;49.296;11.348;2022-07-23T00:12:36;10.53;;;9.40;;
1603;SDS011;795;49.296;11.348;2022-07-23T00:15:17;10.50;;;9.50;;
1603;SDS011;795;49.296;11.348;2022-07-23T00:17:44;10.30;;;9.37;;
1603;SDS011;795;49.296;11.348;2022-07-23T00:20:12;15.30;;;9.57;;
1603;SDS011;795;49.296;11.348;2022-07-23T00:22:49;10.47;;;9.47;;
1603;SDS011;795;49.296;11.348;2022-07-23T00:25:21;9.93;;;9.00;;
1603;SDS011;795;49.296;11.348;2022-07-23T00:27:54;9.47;;;8.67;;
1603;SDS011;795;49.296;11.348;2022-07-23T00:30:22;10.17;;;9.23;;
1603;SDS011;795;49.296;11.348;2022-07-23T00:32:53;11.23;;;9.80;;
1603;SDS011;795;49.296;11.348;2022-07-23T00:35:28;10.83;;;9.10;;
1603;SDS011;795;49.296;11.348;2022-07-23T00:38:00;10.07;;;9.20;;
1603;SDS011;795;49.296;11.348;2022-07-23T00:40:30;10.60;;;9.60;;
1603;SDS011;795;49.296;11.348;2022-07-23T00:42:57;10.00;;;9.00;;
1603;SDS011;795;49.296;11.348;2022-07-23T00:45:25;14.43;;;9.40;;
1603;SDS011;795;49.296;11.348;2022-07-23T00:47:53;10.93;;;10.03;;
1603;SDS011;795;49.296;11.348;2022-07-23T00:50:20;10.13;;;9.33;;
1603;SDS011;795;49.296;11.348;2022-07-23T00:52:47;15.83;;;10.10;;
1603;SDS011;795;49.296;11.348;2022-07-23T00:55:15;10.23;;;9.30;;
1603;SDS011;795;49.296;11.348;2022-07-23T00:57:42;10.90;;;10.10;;
1603;SDS011;795;49.296;11.348;2022-07-23T01:00:11;11.10;;;9.47;;
1603;SDS011;795;49.296;11.348;2022-07-23T01:02:40;14.50;;;10.20;;
1603;SDS011;795;49.296;11.348;2022-07-23T01:05:09;11.07;;;10.17;;
1603;SDS011;795;49.296;11.348;2022-07-23T01:07:36;15.20;;;10.83;;
1603;SDS011;795;49.296;11.348;2022-07-23T01:10:05;11.17;;;10.27;;
1603;SDS011;795;49.296;11.348;2022-07-23T01:12:53;11.90;;;10.80;;
1603;SDS011;795;49.296;11.348;2022-07-23T01:15:21;12.27;;;11.07;;
1603;SDS011;795;49.296;11.348;2022-07-23T01:17:48;11.30;;;10.23;;
1603;SDS011;795;49.296;11.348;2022-07-23T01:20:16;11.13;;;10.13;;
1603;SDS011;795;49.296;11.348;2022-07-23T01:22:44;16.07;;;11.53;;
1603;SDS011;795;49.296;11.348;2022-07-23T01:25:12;12.63;;;11.53;;
1603;SDS011;795;49.296;11.348;2022-07-23T01:27:39;12.70;;;11.53;;
1603;SDS011;795;49.296;11.348;2022-07-23T01:30:06;12.80;;;11.50;;
1603;SDS011;795;49.296;11.348;2022-07-23T01:32:35;12.30;;;11.40;;
1603;SDS011;795;49.296;11.348;2022-07-23T01:35:02;12.43;;;11.20;;
1603;SDS011;795;49.296;11.348;2022-07-23T01:37:33;12.10;;;11.00;;
1603;SDS011;795;49.296;11.348;2022-07-23T01:40:01;14.40;;;12.10;;
1603;SDS011;795;49.296;11.348;2022-07-23T01:42:31;13.13;;;11.83;;
1603;SDS011;795;49.296;11.348;2022-07-23T01:45:00;13.80;;;11.70;;
1603;SDS011;795;49.296;11.348;2022-07-23T01:47:27;12.03;;;11.03;;
1603;SDS011;795;49.296;11.348;2022-07-23T01:49:54;12.40;;;11.17;;
1603;SDS011;795;49.296;11.348;2022-07-23T01:52:21;13.10;;;11.90;;
1603;SDS011;795;49.296;11.348;2022-07-23T01:54:48;12.10;;;10.97;;
1603;SDS011;795;49.296;11.348;2022-07-23T01:57:15;12.20;;;11.10;;
1603;SDS011;795;49.296;11.348;2022-07-23T01:59:42;12.00;;;10.80;;
1603;SDS011;795;49.296;11.348;2022-07-23T02:02:09;10.60;;;9.70;;
1603;SDS011;795;49.296;11.348;2022-07-23T02:04:36;12.17;;;11.07;;
1603;SDS011;795;49.296;11.348;2022-07-23T02:07:04;20.87;;;11.30;;
1603;SDS011;795;49.296;11.348;2022-07-23T02:09:31;18.40;;;11.03;;
1603;SDS011;795;49.296;11.348;2022-07-23T02:11:59;17.50;;;11.97;;
1603;SDS011;795;49.296;11.348;2022-07-23T02:14:27;12.40;;;11.20;;
1603;SDS011;795;49.296;11.348;2022-07-23T02:16:54;14.93;;;12.13;;
1603;SDS011;795;49.296;11.348;2022-07-23T02:19:21;15.60;;;11.60;;
1603;SDS011;795;49.296;11.348;2022-07-23T02:21:48;13.20;;;10.57;;
1603;SDS011;795;49.296;11.348;2022-07-23T02:24:16;12.40;;;10.67;;
1603;SDS011;795;49.296;11.348;2022-07-23T02:26:43;12.10;;;11.00;;
1603;SDS011;795;49.296;11.348;2022-07-23T02:29:10;12.53;;;11.33;;
1603;SDS011;795;49.296;11.348;2022-07-23T02:31:37;13.90;;;10.93;;
1603;SDS011;795;49.296;11.348;2022-07-23T02:34:04;11.77;;;10.50;;
1603;SDS011;795;49.296;11.348;2022-07-23T02:36:32;10.40;;;9.50;;
1603;SDS011;795;49.296;11.348;2022-07-23T02:38:59;11.23;;;10.20;;
1603;SDS011;795;49.296;11.348;2022-07-23T02:41:26;12.07;;;11.07;;
1603;SDS011;795;49.296;11.348;2022-07-23T02:43:53;10.23;;;9.33;;
1603;SDS011;795;49.296;11.348;2022-07-23T02:46:20;12.07;;;10.67;;
1603;SDS011;795;49.296;11.348;2022-07-23T02:48:47;9.87;;;8.87;;
1603;SDS011;795;49.296;11.348;2022-07-23T02:51:15;11.33;;;10.23;;
1603;SDS011;795;49.296;11.348;2022-07-23T02:53:42;10.93;;;9.60;;
1603;SDS011;795;49.296;11.348;2022-07-23T02:56:09;9.80;;;9.00;;
1603;SDS011;795;49.296;11.348;2022-07-23T02:58:36;10.40;;;9.50;;
1603;SDS011;795;49.296;11.348;2022-07-23T03:01:03;11.20;;;9.50;;
1603;SDS011;795;49.296;11.348;2022-07-23T03:03:30;9.40;;;8.43;;
1603;SDS011;795;49.296;11.348;2022-07-23T03:05:57;13.63;;;9.40;;
1603;SDS011;795;49.296;11.348;2022-07-23T03:08:24;10.07;;;9.10;;
1603;SDS011;795;49.296;11.348;2022-07-23T03:10:52;10.63;;;9.50;;
1603;SDS011;795;49.296;11.348;2022-07-23T03:13:19;8.80;;;8.00;;
1603;SDS011;795;49.296;11.348;2022-07-23T03:15:46;9.17;;;8.37;;
1603;SDS011;795;49.296;11.348;2022-07-23T03:18:13;10.30;;;8.53;;
1603;SDS011;795;49.296;11.348;2022-07-23T03:20:40;9.00;;;7.37;;
1603;SDS011;795;49.296;11.348;2022-07-23T03:23:07;9.07;;;8.17;;
1603;SDS011;795;49.296;11.348;2022-07-23T03:25:34;8.27;;;7.53;;
1603;SDS011;795;49.296;11.348;2022-07-23T03:28:01;8.33;;;7.57;;
1603;SDS011;795;49.296;11.348;2022-07-23T03:30:28;8.90;;;8.00;;
1603;SDS011;795;49.296;11.348;2022-07-23T03:32:55;8.43;;;7.63;;
1603;SDS011;795;49.296;11.348;2022-07-23T03:35:22;8.33;;;7.70;;
1603;SDS011;795;49.296;11.348;2022-07-23T03:37:49;8.20;;;7.50;;
1603;SDS011;795;49.296;11.348;2022-07-23T03:40:16;8.97;;;8.17;;
1603;SDS011;795;49.296;11.348;2022-07-23T03:42:44;8.60;;;7.70;;
1603;SDS011;795;49.296;11.348;2022-07-23T03:45:12;9.37;;;7.23;;
1603;SDS011;795;49.296;11.348;2022-07-23T03:47:39;6.37;;;5.87;;
1603;SDS011;795;49.296;11.348;2022-07-23T03:50:06;7.00;;;6.30;;
1603;SDS011;795;49.296;11.348;2022-07-23T03:52:35;6.20;;;5.70;;
1603;SDS011;795;49.296;11.348;2022-07-23T03:55:02;6.23;;;5.60;;
1603;SDS011;795;49.296;11.348;2022-07-23T03:57:31;6.33;;;5.83;;
1603;SDS011;795;49.296;11.348;2022-07-23T03:59:58;6.63;;;5.37;;
1603;SDS011;795;49.296;11.348;2022-07-23T04:02:25;5.80;;;5.20;;
1603;SDS011;795;49.296;11.348;2022-07-23T04:04:52;6.53;;;5.37;;
1603;SDS011;795;49.296;11.348;2022-07-23T04:07:19;7.20;;;5.80;;
1603;SDS011;795;49.296;11.348;2022-07-23T04:09:46;6.03;;;5.30;;
1603;SDS011;795;49.296;11.348;2022-07-23T04:12:13;7.83;;;5.77;;
1603;SDS011;795;49.296;11.348;2022-07-23T04:14:41;6.87;;;6.17;;
1603;SDS011;795;49.296;11.348;2022-07-23T04:17:08;7.30;;;5.77;;
1603;SDS011;795;49.296;11.348;2022-07-23T04:19:35;6.10;;;5.50;;
1603;SDS011;795;49.296;11.348;2022-07-23T04:22:06;5.63;;;5.23;;
1603;SDS011;795;49.296;11.348;2022-07-23T04:24:34;6.07;;;5.57;;
1603;SDS011;795;49.296;11.348;2022-07-23T04:27:02;6.70;;;5.97;;
1603;SDS011;795;49.296;11.348;2022-07-23T04:29:31;7.00;;;6.40;;
1603;SDS011;795;49.296;11.348;2022-07-23T04:31:58;8.23;;;5.77;;
1603;SDS011;795;49.296;11.348;2022-07-23T04:34:25;6.20;;;5.60;;
1603;SDS011;795;49.296;11.348;2022-07-23T04:36:53;6.70;;;6.10;;
1603;SDS011;795;49.296;11.348;2022-07-23T04:39:20;9.80;;;5.73;;
1603;SDS011;795;49.296;11.348;2022-07-23T04:41:47;6.50;;;6.00;;
1603;SDS011;795;49.296;11.348;2022-07-23T04:44:14;6.73;;;5.53;;
1603;SDS011;795;49.296;11.348;2022-07-23T04:46:41;7.20;;;6.50;;
1603;SDS011;795;49.296;11.348;2022-07-23T04:49:09;7.20;;;6.47;;
1603;SDS011;795;49.296;11.348;2022-07-23T04:51:36;7.33;;;6.00;;
1603;SDS011;795;49.296;11.348;2022-07-23T04:54:03;6.97;;;5.80;;
1603;SDS011;795;49.296;11.348;2022-07-23T04:56:30;6.00;;;5.50;;
1603;SDS011;795;49.296;11.348;2022-07-23T04:58:57;6.00;;;5.50;;
1603;SDS011;795;49.296;11.348;2022-07-23T05:01:24;7.20;;;6.53;;
1603;SDS011;795;49.296;11.348;2022-07-23T05:03:51;7.00;;;6.40;;
1603;SDS011;795;49.296;11.348;2022-07-23T05:06:19;5.70;;;5.30;;
1603;SDS011;795;49.296;11.348;2022-07-23T05:08:46;6.17;;;5.67;;
1603;SDS011;795;49.296;11.348;2022-07-23T05:11:13;6.37;;;5.80;;
1603;SDS011;795;49.296;11.348;2022-07-23T05:13:40;7.97;;;5.90;;
1603;SDS011;795;49.296;11.348;2022-07-23T05:16:07;7.77;;;6.70;;
1603;SDS011;795;49.296;11.348;2022-07-23T05:18:34;7.03;;;6.53;;
1603;SDS011;795;49.296;11.348;2022-07-23T05:21:00;7.27;;;6.67;;
1603;SDS011;795;49.296;11.348;2022-07-23T05:23:27;6.03;;;5.43;;
1603;SDS011;795;49.296;11.348;2022-07-23T05:25:54;7.10;;;6.50;;
1603;SDS011;795;49.296;11.348;2022-07-23T05:28:21;6.43;;;5.93;;
1603;SDS011;795;49.296;11.348;2022-07-23T05:30:48;5.90;;;5.40;;
1603;SDS011;795;49.296;11.348;2022-07-23T05:33:18;6.17;;;5.67;;
1603;SDS011;795;49.296;11.348;2022-07-23T05:35:46;6.17;;;5.57;;
1603;SDS011;795;49.296;11.348;2022-07-23T05:38:13;5.90;;;5.50;;
1603;SDS011;795;49.296;11.348;2022-07-23T05:40:40;5.60;;;5.10;;
1603;SDS011;795;49.296;11.348;2022-07-23T05:43:07;5.40;;;4.90;;
1603;SDS011;795;49.296;11.348;2022-07-23T05:45:34;5.60;;;5.17;;
1603;SDS011;795;49.296;11.348;2022-07-23T05:48:01;4.77;;;4.40;;
1603;SDS011;795;49.296;11.348;2022-07-23T05:50:28;5.57;;;5.03;;
1603;SDS011;795;49.296;11.348;2022-07-23T05:52:55;5.13;;;4.73;;
1603;SDS011;795;49.296;11.348;2022-07-23T05:55:22;5.83;;;5.33;;
1603;SDS011;795;49.296;11.348;2022-07-23T05:57:49;5.27;;;4.77;;
1603;SDS011;795;49.296;11.348;2022-07-23T06:00:16;9.57;;;5.10;;
1603;SDS011;795;49.296;11.348;2022-07-23T06:02:43;7.60;;;5.07;;
1603;SDS011;795;49.296;11.348;2022-07-23T06:05:10;5.63;;;4.97;;
1603;SDS011;795;49.296;11.348;2022-07-23T06:07:37;7.73;;;4.53;;
1603;SDS011;795;49.296;11.348;2022-07-23T06:10:04;5.20;;;4.80;;
1603;SDS011;795;49.296;11.348;2022-07-23T06:12:32;5.30;;;4.90;;
1603;SDS011;795;49.296;11.348;2022-07-23T06:14:59;4.80;;;4.40;;
1603;SDS011;795;49.296;11.348;2022-07-23T06:17:27;7.57;;;5.73;;
1603;SDS011;795;49.296;11.348;2022-07-23T06:19:55;5.43;;;5.03;;
1603;SDS011;795;49.296;11.348;2022-07-23T06:22:22;5.97;;;5.37;;
1603;SDS011;795;49.296;11.348;2022-07-23T06:24:49;5.73;;;5.17;;
1603;SDS011;795;49.296;11.348;2022-07-23T06:27:17;5.50;;;5.00;;
1603;SDS011;795;49.296;11.348;2022-07-23T06:29:51;5.77;;;5.37;;
1603;SDS011;795;49.296;11.348;2022-07-23T06:32:18;6.07;;;5.30;;
1603;SDS011;795;49.296;11.348;2022-07-23T06:34:46;5.13;;;4.70;;
1603;SDS011;795;49.296;11.348;2022-07-23T06:37:14;5.30;;;4.80;;
1603;SDS011;795;49.296;11.348;2022-07-23T06:39:42;5.20;;;4.70;;
1603;SDS011;795;49.296;11.348;2022-07-23T06:42:10;6.07;;;5.47;;
1603;SDS011;795;49.296;11.348;2022-07-23T06:44:38;5.77;;;5.27;;
1603;SDS011;795;49.296;11.348;2022-07-23T06:47:05;5.20;;;4.70;;
1603;SDS011;795;49.296;11.348;2022-07-23T06:49:32;5.93;;;5.10;;
1603;SDS011;795;49.296;11.348;2022-07-23T06:51:59;7.43;;;5.40;;
1603;SDS011;795;49.296;11.348;2022-07-23T06:54:26;5.57;;;5.07;;
1603;SDS011;795;49.296;11.348;2022-07-23T06:56:53;5.80;;;5.30;;
1603;SDS011;795;49.296;11.348;2022-07-23T06:59:20;5.63;;;5.07;;
1603;SDS011;795;49.296;11.348;2022-07-23T07:01:47;5.93;;;5.40;;
1603;SDS011;795;49.296;11.348;2022-07-23T07:04:14;6.07;;;5.67;;
1603;SDS011;795;49.296;11.348;2022-07-23T07:06:41;5.83;;;5.43;;
1603;SDS011;795;49.296;11.348;2022-07-23T07:09:08;5.37;;;4.97;;
1603;SDS011;795;49.296;11.348;2022-07-23T07:11:35;6.23;;;4.93;;
1603;SDS011;795;49.296;11.348;2022-07-23T07:14:02;5.90;;;5.40;;
1603;SDS011;795;49.296;11.348;2022-07-23T07:16:30;6.10;;;5.70;;
1603;SDS011;795;49.296;11.348;2022-07-23T07:18:58;6.03;;;5.63;;
1603;SDS011;795;49.296;11.348;2022-07-23T07:21:26;5.83;;;5.33;;
1603;SDS011;795;49.296;11.348;2022-07-23T07:23:53;13.33;;;6.10;;
1603;SDS011;795;49.296;11.348;2022-07-23T07:26:20;7.37;;;6.00;;
1603;SDS011;795;49.296;11.348;2022-07-23T07:28:47;6.10;;;5.50;;
1603;SDS011;795;49.296;11.348;2022-07-23T07:31:14;6.93;;;5.77;;
1603;SDS011;795;49.296;11.348;2022-07-23T07:33:41;6.03;;;5.53;;
1603;SDS011;795;49.296;11.348;2022-07-23T07:36:10;5.93;;;5.57;;
1603;SDS011;795;49.296;11.348;2022-07-23T07:38:44;6.17;;;5.67;;
1603;SDS011;795;49.296;11.348;2022-07-23T07:41:11;6.43;;;5.93;;
1603;SDS011;795;49.296;11.348;2022-07-23T07:43:38;6.67;;;6.17;;
1603;SDS011;795;49.296;11.348;2022-07-23T07:46:05;6.37;;;5.87;;
1603;SDS011;795;49.296;11.348;2022-07-23T07:48:38;7.80;;;5.90;;
1603;SDS011;795;49.296;11.348;2022-07-23T07:51:06;5.80;;;5.40;;
1603;SDS011;795;49.296;11.348;2022-07-23T07:53:34;10.93;;;5.87;;
1603;SDS011;795;49.296;11.348;2022-07-23T07:56:01;8.33;;;6.77;;
1603;SDS011;795;49.296;11.348;2022-07-23T07:58:28;8.23;;;6.10;;
1603;SDS011;795;49.296;11.348;2022-07-23T08:03:51;7.13;;;6.43;;
1603;SDS011;795;49.296;11.348;2022-07-23T08:06:19;6.50;;;5.90;;
1603;SDS011;795;49.296;11.348;2022-07-23T08:08:46;7.17;;;6.60;;
1603;SDS011;795;49.296;11.348;2022-07-23T08:11:14;7.60;;;7.00;;
1603;SDS011;795;49.296;11.348;2022-07-23T08:13:42;7.83;;;7.20;;
1603;SDS011;795;49.296;11.348;2022-07-23T08:16:10;7.23;;;6.63;;
1603;SDS011;795;49.296;11.348;2022-07-23T08:18:38;6.93;;;6.43;;
1603;SDS011;795;49.296;11.348;2022-07-23T08:21:05;8.50;;;7.30;;
1603;SDS011;795;49.296;11.348;2022-07-23T08:23:32;8.40;;;7.60;;
1603;SDS011;795;49.296;11.348;2022-07-23T08:25:59;8.37;;;7.63;;
1603;SDS011;795;49.296;11.348;2022-07-23T08:28:27;8.87;;;7.93;;
1603;SDS011;795;49.296;11.348;2022-07-23T08:30:54;15.10;;;8.30;;
1603;SDS011;795;49.296;11.348;2022-07-23T08:33:21;7.83;;;6.87;;
1603;SDS011;795;49.296;11.348;2022-07-23T08:35:59;8.57;;;7.87;;
1603;SDS011;795;49.296;11.348;2022-07-23T08:38:30;7.43;;;6.83;;
1603;SDS011;795;49.296;11.348;2022-07-23T08:40:59;8.20;;;7.57;;
1603;SDS011;795;49.296;11.348;2022-07-23T08:43:28;8.20;;;7.40;;
1603;SDS011;795;49.296;11.348;2022-07-23T08:46:00;7.43;;;6.73;;
1603;SDS011;795;49.296;11.348;2022-07-23T08:48:31;7.50;;;6.80;;
1603;SDS011;795;49.296;11.348;2022-07-23T08:51:05;6.57;;;5.97;;
1603;SDS011;795;49.296;11.348;2022-07-23T08:53:33;6.83;;;6.33;;
1603;SDS011;795;49.296;11.348;2022-07-23T08:56:04;7.03;;;5.87;;
1603;SDS011;795;49.296;11.348;2022-07-23T08:58:35;5.80;;;5.30;;
1603;SDS011;795;49.296;11.348;2022-07-23T09:01:02;5.90;;;5.40;;
1603;SDS011;795;49.296;11.348;2022-07-23T09:03:32;6.83;;;6.23;;
1603;SDS011;795;49.296;11.348;2022-07-23T09:06:04;6.80;;;6.20;;
1603;SDS011;795;49.296;11.348;2022-07-23T09:08:36;6.60;;;6.10;;
1603;SDS011;795;49.296;11.348;2022-07-23T09:11:11;6.10;;;5.50;;
1603;SDS011;795;49.296;11.348;2022-07-23T09:13:49;6.60;;;6.10;;
1603;SDS011;795;49.296;11.348;2022-07-23T09:16:26;6.50;;;6.00;;
1603;SDS011;795;49.296;11.348;2022-07-23T09:19:04;5.73;;;5.23;;
1603;SDS011;795;49.296;11.348;2022-07-23T09:21:34;6.20;;;5.80;;
1603;SDS011;795;49.296;11.348;2022-07-23T09:24:05;6.10;;;5.60;;
1603;SDS011;795;49.296;11.348;2022-07-23T09:26:44;7.23;;;6.63;;
1603;SDS011;795;49.296;11.348;2022-07-23T09:29:18;7.77;;;7.00;;
1603;SDS011;795;49.296;11.348;2022-07-23T09:34:32;7.50;;;6.80;;
1603;SDS011;795;49.296;11.348;2022-07-23T09:39:44;8.13;;;6.40;;
1603;SDS011;795;49.296;11.348;2022-07-23T09:42:21;7.23;;;6.60;;
1603;SDS011;795;49.296;11.348;2022-07-23T09:44:52;7.27;;;6.67;;
1603;SDS011;795;49.296;11.348;2022-07-23T09:47:23;8.27;;;7.43;;
1603;SDS011;795;49.296;11.348;2022-07-23T09:52:33;7.77;;;7.17;;
1603;SDS011;795;49.296;11.348;2022-07-23T09:55:21;6.93;;;6.33;;
1603;SDS011;795;49.296;11.348;2022-07-23T09:58:09;7.63;;;6.87;;
1603;SDS011;795;49.296;11.348;2022-07-23T10:00:39;6.60;;;6.10;;
1603;SDS011;795;49.296;11.348;2022-07-23T10:03:08;6.30;;;5.80;;
1603;SDS011;795;49.296;11.348;2022-07-23T10:05:39;6.60;;;5.90;;
1603;SDS011;795;49.296;11.348;2022-07-23T10:08:11;5.93;;;5.53;;
1603;SDS011;795;49.296;11.348;2022-07-23T10:10:42;6.90;;;6.20;;
1603;SDS011;795;49.296;11.348;2022-07-23T10:13:17;6.00;;;5.40;;
1603;SDS011;795;49.296;11.348;2022-07-23T10:16:11;6.60;;;6.10;;
1603;SDS011;795;49.296;11.348;2022-07-23T10:18:43;5.90;;;5.40;;
1603;SDS011;795;49.296;11.348;2022-07-23T10:21:11;6.00;;;5.50;;
1603;SDS011;795;49.296;11.348;2022-07-23T10:38:02;5.80;;;5.30;;
1603;SDS011;795;49.296;11.348;2022-07-23T10:40:55;5.27;;;4.87;;
1603;SDS011;795;49.296;11.348;2022-07-23T10:43:30;6.07;;;5.50;;
1603;SDS011;795;49.296;11.348;2022-07-23T10:46:20;5.90;;;5.50;;
1603;SDS011;795;49.296;11.348;2022-07-23T10:54:42;5.97;;;5.20;;
1603;SDS011;795;49.296;11.348;2022-07-23T10:57:22;5.27;;;4.83;;
1603;SDS011;795;49.296;11.348;2022-07-23T11:02:29;6.10;;;5.60;;
1603;SDS011;795;49.296;11.348;2022-07-23T11:04:59;6.70;;;6.10;;
1603;SDS011;795;49.296;11.348;2022-07-23T11:07:34;5.70;;;5.20;;
1603;SDS011;795;49.296;11.348;2022-07-23T11:10:36;5.73;;;5.10;;
1603;SDS011;795;49.296;11.348;2022-07-23T11:16:14;6.70;;;6.20;;
1603;SDS011;795;49.296;11.348;2022-07-23T11:18:52;6.57;;;6.07;;
1603;SDS011;795;49.296;11.348;2022-07-23T11:24:12;6.30;;;5.80;;
1603;SDS011;795;49.296;11.348;2022-07-23T11:26:48;6.80;;;6.20;;
1603;SDS011;795;49.296;11.348;2022-07-23T11:34:34;7.30;;;6.70;;
1603;SDS011;795;49.296;11.348;2022-07-23T11:37:10;7.87;;;6.70;;
1603;SDS011;795;49.296;11.348;2022-07-23T11:39:58;6.20;;;5.67;;
1603;SDS011;795;49.296;11.348;2022-07-23T11:42:26;7.30;;;6.70;;
1603;SDS011;795;49.296;11.348;2022-07-23T11:44:56;7.83;;;7.13;;
1603;SDS011;795;49.296;11.348;2022-07-23T11:47:24;7.57;;;6.97;;
1603;SDS011;795;49.296;11.348;2022-07-23T11:52:24;14.93;;;7.10;;
1603;SDS011;795;49.296;11.348;2022-07-23T11:54:58;6.90;;;6.40;;
1603;SDS011;795;49.296;11.348;2022-07-23T11:57:32;7.17;;;6.63;;
1603;SDS011;795;49.296;11.348;2022-07-23T12:00:26;6.80;;;6.30;;
1603;SDS011;795;49.296;11.348;2022-07-23T12:02:58;6.30;;;5.80;;
1603;SDS011;795;49.296;11.348;2022-07-23T12:05:33;5.37;;;4.97;;
1603;SDS011;795;49.296;11.348;2022-07-23T12:08:07;6.20;;;5.60;;
1603;SDS011;795;49.296;11.348;2022-07-23T12:10:38;5.93;;;5.47;;
1603;SDS011;795;49.296;11.348;2022-07-23T12:13:15;5.20;;;4.80;;
1603;SDS011;795;49.296;11.348;2022-07-23T12:15:48;5.07;;;4.63;;
1603;SDS011;795;49.296;11.348;2022-07-23T12:18:22;6.33;;;5.83;;
1603;SDS011;795;49.296;11.348;2022-07-23T12:20:57;5.00;;;4.53;;
1603;SDS011;795;49.296;11.348;2022-07-23T12:23:30;5.30;;;4.90;;
1603;SDS011;795;49.296;11.348;2022-07-23T12:26:00;4.90;;;4.50;;
1603;SDS011;795;49.296;11.348;2022-07-23T12:28:30;4.80;;;4.40;;
1603;SDS011;795;49.296;11.348;2022-07-23T12:30:59;6.23;;;5.73;;
1603;SDS011;795;49.296;11.348;2022-07-23T12:36:05;5.27;;;4.93;;
1603;SDS011;795;49.296;11.348;2022-07-23T12:38:37;5.23;;;4.93;;
1603;SDS011;795;49.296;11.348;2022-07-23T12:41:17;5.73;;;5.23;;
1603;SDS011;795;49.296;11.348;2022-07-23T12:43:45;5.53;;;4.70;;
1603;SDS011;795;49.296;11.348;2022-07-23T12:46:14;5.10;;;4.80;;
1603;SDS011;795;49.296;11.348;2022-07-23T12:48:52;5.30;;;4.90;;
1603;SDS011;795;49.296;11.348;2022-07-23T12:51:30;6.00;;;5.50;;
1603;SDS011;795;49.296;11.348;2022-07-23T12:54:05;4.30;;;4.00;;
1603;SDS011;795;49.296;11.348;2022-07-23T12:56:37;5.27;;;4.80;;
1603;SDS011;795;49.296;11.348;2022-07-23T12:59:14;5.20;;;4.80;;
1603;SDS011;795;49.296;11.348;2022-07-23T13:01:54;5.00;;;4.60;;
1603;SDS011;795;49.296;11.348;2022-07-23T13:04:28;5.50;;;5.10;;
1603;SDS011;795;49.296;11.348;2022-07-23T13:06:56;5.33;;;5.00;;
1603;SDS011;795;49.296;11.348;2022-07-23T13:09:31;5.63;;;5.13;;
1603;SDS011;795;49.296;11.348;2022-07-23T13:12:08;5.00;;;4.60;;
1603;SDS011;795;49.296;11.348;2022-07-23T13:14:36;4.90;;;4.60;;
1603;SDS011;795;49.296;11.348;2022-07-23T13:17:04;5.17;;;4.87;;
1603;SDS011;795;49.296;11.348;2022-07-23T13:19:32;7.23;;;5.00;;
1603;SDS011;795;49.296;11.348;2022-07-23T13:22:00;4.40;;;4.10;;
1603;SDS011;795;49.296;11.348;2022-07-23T13:24:34;4.90;;;4.50;;
1603;SDS011;795;49.296;11.348;2022-07-23T13:27:05;5.40;;;5.00;;
1603;SDS011;795;49.296;11.348;2022-07-23T13:29:36;5.37;;;4.90;;
1603;SDS011;795;49.296;11.348;2022-07-23T13:32:03;5.20;;;4.83;;
1603;SDS011;795;49.296;11.348;2022-07-23T13:34:51;5.13;;;4.70;;
1603;SDS011;795;49.296;11.348;2022-07-23T13:37:18;5.03;;;4.50;;
1603;SDS011;795;49.296;11.348;2022-07-23T13:39:45;4.63;;;4.33;;
1603;SDS011;795;49.296;11.348;2022-07-23T13:42:12;5.63;;;5.13;;
1603;SDS011;795;49.296;11.348;2022-07-23T13:44:39;5.17;;;4.77;;
1603;SDS011;795;49.296;11.348;2022-07-23T13:47:06;5.53;;;5.03;;
1603;SDS011;795;49.296;11.348;2022-07-23T13:49:34;5.63;;;4.93;;
1603;SDS011;795;49.296;11.348;2022-07-23T13:52:01;6.33;;;4.70;;
1603;SDS011;795;49.296;11.348;2022-07-23T13:54:33;5.97;;;5.10;;
1603;SDS011;795;49.296;11.348;2022-07-23T13:57:00;4.83;;;4.43;;
1603;SDS011;795;49.296;11.348;2022-07-23T13:59:28;6.27;;;5.67;;
1603;SDS011;795;49.296;11.348;2022-07-23T14:01:56;5.20;;;4.90;;
1603;SDS011;795;49.296;11.348;2022-07-23T14:04:44;6.20;;;4.70;;
1603;SDS011;795;49.296;11.348;2022-07-23T14:07:12;5.23;;;4.73;;
1603;SDS011;795;49.296;11.348;2022-07-23T14:09:39;6.20;;;5.70;;
1603;SDS011;795;49.296;11.348;2022-07-23T14:12:06;5.17;;;4.77;;
1603;SDS011;795;49.296;11.348;2022-07-23T14:14:36;5.67;;;5.17;;
1603;SDS011;795;49.296;11.348;2022-07-23T14:17:03;5.50;;;5.00;;
1603;SDS011;795;49.296;11.348;2022-07-23T14:19:32;5.40;;;4.93;;
1603;SDS011;795;49.296;11.348;2022-07-23T14:22:00;6.43;;;5.93;;
1603;SDS011;795;49.296;11.348;2022-07-23T14:24:27;5.43;;;4.93;;
1603;SDS011;795;49.296;11.348;2022-07-23T14:27:00;5.10;;;4.80;;
1603;SDS011;795;49.296;11.348;2022-07-23T14:29:31;5.63;;;5.23;;
1603;SDS011;795;49.296;11.348;2022-07-23T14:32:00;6.80;;;6.23;;
1603;SDS011;795;49.296;11.348;2022-07-23T14:34:28;5.90;;;5.40;;
1603;SDS011;795;49.296;11.348;2022-07-23T14:36:56;5.40;;;4.90;;
1603;SDS011;795;49.296;11.348;2022-07-23T14:39:24;6.30;;;5.30;;
1603;SDS011;795;49.296;11.348;2022-07-23T14:41:52;5.77;;;5.27;;
1603;SDS011;795;49.296;11.348;2022-07-23T14:44:19;5.80;;;5.40;;
1603;SDS011;795;49.296;11.348;2022-07-23T14:46:47;5.63;;;5.23;;
1603;SDS011;795;49.296;11.348;2022-07-23T14:49:13;6.17;;;5.63;;
1603;SDS011;795;49.296;11.348;2022-07-23T14:51:41;6.07;;;5.57;;
1603;SDS011;795;49.296;11.348;2022-07-23T14:54:10;5.77;;;5.37;;
1603;SDS011;795;49.296;11.348;2022-07-23T14:56:37;7.20;;;6.70;;
1603;SDS011;795;49.296;11.348;2022-07-23T14:59:05;6.77;;;6.27;;
1603;SDS011;795;49.296;11.348;2022-07-23T15:01:33;6.40;;;5.60;;
1603;SDS011;795;49.296;11.348;2022-07-23T15:04:03;5.70;;;5.37;;
1603;SDS011;795;49.296;11.348;2022-07-23T15:06:52;6.77;;;6.27;;
1603;SDS011;795;49.296;11.348;2022-07-23T15:09:19;6.20;;;5.70;;
1603;SDS011;795;49.296;11.348;2022-07-23T15:11:47;6.27;;;5.83;;
1603;SDS011;795;49.296;11.348;2022-07-23T15:14:15;6.43;;;5.60;;
1603;SDS011;795;49.296;11.348;2022-07-23T15:16:54;7.37;;;6.67;;
1603;SDS011;795;49.296;11.348;2022-07-23T15:19:22;7.83;;;7.13;;
1603;SDS011;795;49.296;11.348;2022-07-23T15:21:49;7.73;;;7.03;;
1603;SDS011;795;49.296;11.348;2022-07-23T15:24:17;7.80;;;7.20;;
1603;SDS011;795;49.296;11.348;2022-07-23T15:26:44;8.00;;;7.40;;
1603;SDS011;795;49.296;11.348;2022-07-23T15:29:12;7.90;;;7.20;;
1603;SDS011;795;49.296;11.348;2022-07-23T15:31:39;6.97;;;6.40;;
1603;SDS011;795;49.296;11.348;2022-07-23T15:34:06;7.83;;;6.97;;
1603;SDS011;795;49.296;11.348;2022-07-23T15:36:33;8.03;;;7.43;;
1603;SDS011;795;49.296;11.348;2022-07-23T15:39:01;8.03;;;7.43;;
1603;SDS011;795;49.296;11.348;2022-07-23T15:41:30;8.17;;;6.90;;
1603;SDS011;795;49.296;11.348;2022-07-23T15:43:58;7.70;;;7.20;;
1603;SDS011;795;49.296;11.348;2022-07-23T15:46:46;8.13;;;6.80;;
1603;SDS011;795;49.296;11.348;2022-07-23T15:49:13;7.30;;;6.60;;
1603;SDS011;795;49.296;11.348;2022-07-23T15:51:44;8.47;;;7.80;;
1603;SDS011;795;49.296;11.348;2022-07-23T15:54:13;10.90;;;10.03;;
1603;SDS011;795;49.296;11.348;2022-07-23T15:56:41;8.10;;;7.50;;
1603;SDS011;795;49.296;11.348;2022-07-23T15:59:09;10.43;;;9.53;;
1603;SDS011;795;49.296;11.348;2022-07-23T16:01:36;7.50;;;6.90;;
1603;SDS011;795;49.296;11.348;2022-07-23T16:04:03;7.37;;;6.77;;
1603;SDS011;795;49.296;11.348;2022-07-23T16:06:34;9.13;;;7.40;;
1603;SDS011;795;49.296;11.348;2022-07-23T16:09:03;9.07;;;8.30;;
1603;SDS011;795;49.296;11.348;2022-07-23T16:11:33;8.33;;;7.63;;
1603;SDS011;795;49.296;11.348;2022-07-23T16:14:00;9.77;;;7.10;;